map of OSY home
OSY - Airport
Location
City:  Namsos, Norway
ICAO:ENNM
IATA:OSY

Details
Type:Airport (Aerodrome, Airfield)
Latitude:6428'N (64.467)
Longitude:1135'E (11.583)
Elevation:7 ft (2 m)
Variation:4.10E (WMM2015 magnetic declination)
0.20 annual change
Runways:unknown number
Longest:2749 ft (838 m)

Time
Time Zone:UTC+1 (DST+2)
Local Time:

Weather
METAR:ENNM 161250Z 08017KT CAVOK M02/M06 Q1017

Related Locations
Nearby:
Farthest:NZTB: 11477 mi / 18470 km
Terra Nova Bay [Mario Zucchelli Station], AQ

Find:

   beyond  
but within

Other Information
Maps:
NOTAMs:
Links:
Sources:

  
  • flag of Norway
  

Sectional Chart

Flight Planning
at skyvector.com

Satellite Image

Google Maps Satellite view

 

Copyright © 2004-2018 Karl L. Swartz. All rights reserved.
The Great Circle Mapper name and logo are trademarks of the Great Circle Mapper.
All other trademarks mentioned herein belong to their respective owners.
Please see credits for attibutions and further copyright information.

  Follow gcmap on Facebook Follow gcmap on Twitter Follow gcmap on Google+ GCmap on LinkedIn

hCard Microformat

Geo Microformat